Time;durP1;ratioP1;P1;durP2;ratioP2;P2;SDS_P1;SDS_P2;PMS_P1;PMS_P2;Temp;Humidity;BMP_temperature;BMP_pressure;BME280_temperature;BME280_humidity;BME280_pressure;Samples;Min_cycle;Max_cycle;Signal;HPM_P1;HPM_P2
2021/12/15 07:00:45;;;;;;;290.42;13.32;;;5.30;99.90;;;;;;5825039;23;20055;-86
2021/12/15 07:03:15;;;;;;;328.20;14.88;;;5.20;99.90;;;;;;4935187;28;20047;-86
2021/12/15 07:05:43;;;;;;;234.75;11.80;;;5.20;99.90;;;;;;4951975;28;20055;-86
2021/12/15 07:08:12;;;;;;;351.33;15.25;;;5.20;99.90;;;;;;4952338;28;20047;-85
2021/12/15 07:10:44;;;;;;;255.05;14.48;;;5.20;99.90;;;;;;4951993;28;20519;-89
2021/12/15 07:13:13;;;;;;;382.80;17.98;;;5.10;99.90;;;;;;4935696;28;20050;-89
2021/12/15 07:15:41;;;;;;;158.43;11.35;;;5.10;99.90;;;;;;4950966;28;20598;-87
2021/12/15 07:18:11;;;;;;;302.00;16.70;;;5.10;99.90;;;;;;4949505;28;20054;-88
2021/12/15 07:23:16;;;;;;;259.55;13.90;;;5.00;99.90;;;;;;4952724;28;20075;-89
2021/12/15 07:25:46;;;;;;;294.88;15.20;;;5.00;99.90;;;;;;4935454;29;20467;-89
2021/12/15 07:28:16;;;;;;;153.23;11.35;;;5.00;99.90;;;;;;4949066;28;20051;-90
2021/12/15 07:30:44;;;;;;;280.67;15.70;;;4.90;99.90;;;;;;4936038;29;20054;-89
2021/12/15 07:33:12;;;;;;;388.85;18.05;;;4.90;99.90;;;;;;4933876;28;20113;-87
2021/12/15 07:35:40;;;;;;;422.83;19.88;;;4.90;99.90;;;;;;4933935;29;20098;-88
2021/12/15 07:38:08;;;;;;;595.60;26.73;;;4.80;99.90;;;;;;4933646;28;20504;-89
2021/12/15 07:40:37;;;;;;;523.37;23.53;;;4.80;99.90;;;;;;4935519;29;20051;-90
2021/12/15 07:43:13;;;;;;;439.95;23.70;;;4.70;99.90;;;;;;4933786;28;20047;-89
2021/12/15 07:45:44;;;;;;;271.83;14.40;;;4.70;99.90;;;;;;4950055;28;20154;-89
2021/12/15 07:48:14;;;;;;;119.82;9.90;;;4.60;99.90;;;;;;4948984;28;20654;-88
2021/12/15 07:50:45;;;;;;;250.60;15.05;;;4.60;99.90;;;;;;4949701;28;20055;-88
2021/12/15 07:53:13;;;;;;;146.90;11.18;;;4.60;99.90;;;;;;4951511;28;20508;-88
2021/12/15 07:55:40;;;;;;;146.88;11.00;;;4.60;99.90;;;;;;4949089;28;20490;-88
2021/12/15 07:58:09;;;;;;;194.32;12.23;;;4.60;99.90;;;;;;4934031;29;20454;-88
2021/12/15 08:00:38;;;;;;;241.88;14.38;;;4.60;99.90;;;;;;4949443;28;20047;-88
2021/12/15 08:03:06;;;;;;;203.73;12.65;;;4.60;99.90;;;;;;4932438;29;20182;-88
2021/12/15 08:05:35;;;;;;;115.95;11.15;;;4.60;99.90;;;;;;4933643;29;20106;-87
2021/12/15 08:08:03;;;;;;;;;;;4.60;99.90;;;;;;4937155;28;20319;-86
2021/12/15 08:10:56;;;;;;;92.65;9.73;;;4.70;99.90;;;;;;4937075;29;20054;-88
2021/12/15 08:13:30;;;;;;;93.97;10.43;;;4.70;99.90;;;;;;4933335;28;20062;-88
2021/12/15 08:15:58;;;;;;;75.32;10.70;;;4.70;99.90;;;;;;4934216;29;20464;-88
2021/12/15 08:18:25;;;;;;;58.80;8.93;;;4.70;99.90;;;;;;4933577;28;20047;-88
2021/12/15 08:20:52;;;;;;;88.43;10.43;;;4.70;99.90;;;;;;4931763;29;20342;-87
2021/12/15 08:23:19;;;;;;;53.53;8.90;;;4.80;99.90;;;;;;4951618;28;20080;-87
2021/12/15 08:25:46;;;;;;;42.72;9.25;;;4.80;99.90;;;;;;4948101;28;20404;-88
2021/12/15 08:28:14;;;;;;;78.30;10.38;;;4.80;99.90;;;;;;4933015;28;20460;-86
2021/12/15 08:30:47;;;;;;;51.85;9.75;;;4.80;99.90;;;;;;4935157;29;20048;-88
2021/12/15 08:33:18;;;;;;;83.05;10.93;;;4.80;99.90;;;;;;4933569;28;20051;-89
2021/12/15 08:35:49;;;;;;;65.63;9.77;;;4.80;99.90;;;;;;4949978;28;20043;-87
2021/12/15 08:38:18;;;;;;;75.22;10.20;;;4.90;99.90;;;;;;4937821;28;20052;-88
2021/12/15 08:40:46;;;;;;;71.50;10.93;;;4.80;99.90;;;;;;4952519;28;20051;-88
2021/12/15 08:43:14;;;;;;;;;;;4.90;99.90;;;;;;4952838;28;20496;-88
2021/12/15 08:45:46;;;;;;;72.20;9.38;;;4.90;99.90;;;;;;4952394;28;19930;-88
2021/12/15 08:48:13;;;;;;;58.00;9.30;;;4.90;99.90;;;;;;4952109;28;20047;-88
2021/12/15 08:50:41;;;;;;;78.55;10.00;;;4.90;99.90;;;;;;4937968;28;20051;-88
2021/12/15 08:53:11;;;;;;;89.90;10.57;;;4.90;99.90;;;;;;4938047;28;20059;-89
2021/12/15 08:55:45;;;;;;;75.25;9.73;;;4.90;99.90;;;;;;4934634;29;20106;-89
2021/12/15 08:58:15;;;;;;;110.57;10.50;;;5.00;99.90;;;;;;4935674;28;20047;-88
2021/12/15 09:00:50;;;;;;;94.63;10.90;;;5.00;99.90;;;;;;4951467;28;20055;-88
2021/12/15 09:03:19;;;;;;;85.97;10.43;;;5.00;99.90;;;;;;4951884;28;20419;-88
2021/12/15 09:05:51;;;;;;;136.95;10.55;;;5.10;99.90;;;;;;4935435;28;20059;-88
2021/12/15 09:08:20;;;;;;;118.47;11.52;;;5.10;99.90;;;;;;4939577;28;20047;-87
2021/12/15 09:10:47;;;;;;;126.97;11.23;;;5.10;99.90;;;;;;4953374;28;20055;-88
2021/12/15 09:13:15;;;;;;;161.30;12.48;;;5.10;99.90;;;;;;4951727;28;20069;-88
2021/12/15 09:15:43;;;;;;;104.45;10.70;;;5.20;99.90;;;;;;4937171;29;20055;-89
2021/12/15 09:18:12;;;;;;;90.23;9.57;;;5.20;99.90;;;;;;4937236;28;20137;-87
2021/12/15 09:20:41;;;;;;;129.35;12.38;;;5.30;99.90;;;;;;4953206;28;20039;-89
2021/12/15 09:23:12;;;;;;;119.85;11.23;;;5.30;99.90;;;;;;4954679;28;20051;-88
2021/12/15 09:25:40;;;;;;;201.90;14.27;;;5.30;99.90;;;;;;4937825;29;20058;-89
2021/12/15 09:28:07;;;;;;;147.02;12.00;;;5.30;99.90;;;;;;4936541;28;20051;-88
2021/12/15 09:30:43;;;;;;;182.10;13.43;;;5.40;99.90;;;;;;4937235;28;20105;-89
2021/12/15 09:33:28;;;;;;;114.78;11.93;;;5.40;99.90;;;;;;4936644;28;20051;-88
2021/12/15 09:35:56;;;;;;;217.68;14.00;;;5.50;99.90;;;;;;4938974;29;20048;-88
2021/12/15 09:38:24;;;;;;;316.20;18.33;;;5.50;99.90;;;;;;4936531;28;20054;-88
2021/12/15 09:40:55;;;;;;;224.73;14.85;;;5.60;99.90;;;;;;4934852;29;20047;-88
2021/12/15 09:43:26;;;;;;;266.15;15.13;;;5.60;99.90;;;;;;4936291;28;20055;-88
2021/12/15 09:46:03;;;;;;;205.48;15.57;;;5.70;99.90;;;;;;4936647;29;20039;-89
2021/12/15 10:04:49;;;;;;;148.90;13.98;;;6.00;99.90;;;;;;4952600;28;20046;-89
2021/12/15 10:19:25;;;;;;;123.30;12.80;;;6.20;99.90;;;;;;4912927;29;20505;-89
2021/12/15 10:21:56;;;;;;;234.00;16.98;;;6.30;99.90;;;;;;4913657;29;20052;-89
2021/12/15 10:24:31;;;;;;;331.30;18.98;;;6.30;99.90;;;;;;4912386;29;20044;-89
2021/12/15 10:27:06;;;;;;;283.98;17.05;;;6.40;99.90;;;;;;4898623;29;20044;-88
2021/12/15 10:29:33;;;;;;;408.50;20.58;;;6.40;99.90;;;;;;4896932;29;20116;-88
2021/12/15 10:32:06;;;;;;;467.40;21.58;;;6.40;99.90;;;;;;4913288;29;20099;-89
2021/12/15 10:34:33;;;;;;;369.75;19.77;;;6.40;99.90;;;;;;4913423;29;20051;-83
2021/12/15 10:37:04;;;;;;;356.63;20.70;;;6.40;99.90;;;;;;4898662;29;20675;-89
2021/12/15 10:39:31;;;;;;;186.70;14.90;;;6.50;99.90;;;;;;4922725;29;20630;-89
2021/12/15 10:41:58;;;;;;;163.35;14.18;;;6.50;99.90;;;;;;4925997;29;20044;-88
2021/12/15 10:44:26;;;;;;;287.05;18.88;;;6.60;99.90;;;;;;4897866;29;20536;-90
2021/12/15 10:47:06;;;;;;;445.90;24.20;;;6.60;99.90;;;;;;4917204;29;20103;-89
2021/12/15 10:49:38;;;;;;;295.23;18.88;;;6.70;99.90;;;;;;4947912;28;20082;-89
2021/12/15 10:52:09;;;;;;;189.00;16.30;;;6.70;99.90;;;;;;4949185;28;20043;-88
2021/12/15 10:54:49;;;;;;;133.10;14.35;;;6.80;99.90;;;;;;4936605;29;20051;-89
2021/12/15 10:57:34;;;;;;;259.45;18.58;;;6.80;99.90;;;;;;4951060;28;20475;-90
2021/12/15 11:00:07;;;;;;;292.60;18.98;;;6.90;99.90;;;;;;4950741;28;20063;-90
2021/12/15 11:02:37;;;;;;;224.20;18.15;;;6.90;99.90;;;;;;4951925;28;20562;-91
2021/12/15 11:05:07;;;;;;;129.23;15.47;;;6.90;99.90;;;;;;4952957;28;20047;-89
2021/12/15 11:07:36;;;;;;;153.35;14.98;;;7.00;99.90;;;;;;4949556;28;20051;-90
2021/12/15 11:10:24;;;;;;;108.80;15.75;;;7.00;99.90;;;;;;4941437;28;20157;-89
2021/12/15 11:12:57;;;;;;;125.57;16.67;;;7.10;99.90;;;;;;4937269;29;20464;-90
2021/12/15 11:15:27;;;;;;;144.75;17.27;;;7.20;99.90;;;;;;4934960;28;20125;-90
2021/12/15 11:18:11;;;;;;;231.15;18.65;;;7.20;99.90;;;;;;4933511;29;20050;-91
2021/12/15 11:20:45;;;;;;;185.65;18.05;;;7.20;99.90;;;;;;4934971;28;20555;-91
2021/12/15 11:23:14;;;;;;;87.95;17.02;;;7.30;99.90;;;;;;4935425;28;20463;-90
2021/12/15 11:25:50;;;;;;;147.82;17.85;;;7.30;99.90;;;;;;4934876;29;20055;-91
2021/12/15 11:28:26;;;;;;;66.40;15.68;;;7.40;99.90;;;;;;4934468;28;20051;-90
2021/12/15 11:31:12;;;;;;;104.97;16.83;;;7.40;99.90;;;;;;4949344;28;20039;-91
2021/12/15 11:33:45;;;;;;;73.30;16.10;;;7.40;99.90;;;;;;4949493;28;20071;-91
2021/12/15 11:36:27;;;;;;;50.30;14.75;;;7.40;99.90;;;;;;4933937;28;20075;-91
2021/12/15 11:38:56;;;;;;;38.55;14.63;;;7.40;99.90;;;;;;4936534;28;20058;-90
2021/12/15 11:41:23;;;;;;;;;;;7.50;99.90;;;;;;4934928;28;20051;-90
2021/12/15 11:43:58;;;;;;;41.45;14.23;;;7.50;99.90;;;;;;4947864;28;20419;-91
2021/12/15 11:46:36;;;;;;;26.77;15.35;;;7.60;99.90;;;;;;4933572;28;20047;-90
2021/12/15 11:49:15;;;;;;;25.83;14.07;;;7.60;99.90;;;;;;4948915;28;20130;-90
2021/12/15 11:51:53;;;;;;;28.90;12.60;;;7.70;99.90;;;;;;4948759;28;20051;-90
2021/12/15 11:54:32;;;;;;;24.33;13.70;;;7.70;99.90;;;;;;4934487;28;20555;-88
2021/12/15 11:57:21;;;;;;;21.55;13.32;;;7.80;99.90;;;;;;4934048;28;20110;-91
2021/12/15 11:59:55;;;;;;;25.10;13.30;;;7.80;99.90;;;;;;4948281;28;20064;-89
2021/12/15 12:02:27;;;;;;;25.15;13.38;;;7.90;99.90;;;;;;4927356;28;20051;-90
2021/12/15 12:04:59;;;;;;;18.13;12.52;;;7.90;99.90;;;;;;4947619;28;20501;-90
2021/12/15 12:07:29;;;;;;;19.13;13.50;;;7.90;99.90;;;;;;4949800;28;20069;-90
2021/12/15 12:10:21;;;;;;;27.83;15.10;;;7.90;99.90;;;;;;4954116;28;20106;-91
2021/12/15 12:12:55;;;;;;;135.00;67.43;;;7.90;99.90;;;;;;4950766;28;20420;-90
2021/12/15 12:15:27;;;;;;;31.98;20.55;;;8.00;99.90;;;;;;4933843;28;20043;-90
2021/12/15 12:17:57;;;;;;;27.02;15.15;;;8.00;99.90;;;;;;4933982;28;20047;-90
2021/12/15 12:20:34;;;;;;;23.42;15.57;;;8.10;99.90;;;;;;4934239;28;20058;-89
2021/12/15 12:23:05;;;;;;;22.35;14.90;;;8.10;99.90;;;;;;4946423;28;20362;-90
2021/12/15 12:25:54;;;;;;;24.00;18.90;;;8.10;99.90;;;;;;4947938;28;20031;-89
2021/12/15 12:28:31;;;;;;;51.63;27.58;;;8.10;99.90;;;;;;4948114;28;20052;-90
2021/12/15 12:31:11;;;;;;;114.20;55.20;;;8.20;99.90;;;;;;4934835;29;20091;-90
2021/12/15 12:33:38;;;;;;;32.85;22.73;;;8.30;99.90;;;;;;4944024;28;20040;-89
2021/12/15 12:36:33;;;;;;;32.05;23.70;;;8.30;99.90;;;;;;4948001;28;20110;-87
2021/12/15 12:39:06;;;;;;;19.63;16.30;;;8.40;99.90;;;;;;4917433;29;20048;-89
2021/12/15 12:41:42;;;;;;;20.13;14.60;;;8.50;99.90;;;;;;4932648;29;20052;-87
2021/12/15 12:44:12;;;;;;;17.63;13.02;;;8.50;99.90;;;;;;4933114;28;20109;-88
2021/12/15 12:46:54;;;;;;;21.25;15.48;;;8.50;99.90;;;;;;4948787;28;20385;-89
2021/12/15 12:50:07;;;;;;;21.00;16.20;;;8.50;99.90;;;;;;4948494;28;20336;-89
2021/12/15 13:01:18;;;;;;;18.27;14.18;;;8.60;99.90;;;;;;4910061;29;20093;-88
2021/12/15 13:03:53;;;;;;;22.25;16.48;;;8.70;99.90;;;;;;4910866;29;20060;-88
2021/12/15 13:06:27;;;;;;;105.70;74.53;;;8.70;99.90;;;;;;4911007;29;20675;-88
2021/12/15 13:09:04;;;;;;;37.45;26.10;;;8.70;99.90;;;;;;4908614;29;20125;-88
2021/12/15 13:11:35;;;;;;;17.60;13.40;;;8.70;99.90;;;;;;4894989;29;20572;-87
2021/12/15 13:14:10;;;;;;;98.25;68.50;;;8.70;99.90;;;;;;4908997;29;20064;-89
2021/12/15 13:16:55;;;;;;;18.27;14.43;;;8.70;99.90;;;;;;4907626;29;20045;-89
2021/12/15 13:19:25;;;;;;;16.02;12.68;;;8.80;99.90;;;;;;4908488;29;20083;-89
2021/12/15 13:30:57;;;;;;;13.65;10.70;;;8.70;99.90;;;;;;4913915;29;20044;-89
2021/12/15 13:33:29;;;;;;;16.15;11.90;;;8.80;99.90;;;;;;4937841;28;20051;-89
2021/12/15 13:36:07;;;;;;;16.63;13.25;;;8.80;99.90;;;;;;4956112;28;20051;-89
2021/12/15 13:38:40;;;;;;;17.67;13.25;;;8.80;99.90;;;;;;4951761;28;20480;-87
2021/12/15 13:41:26;;;;;;;21.42;16.90;;;8.80;99.90;;;;;;4950806;28;20106;-87
2021/12/15 13:44:06;;;;;;;19.23;13.65;;;8.80;99.90;;;;;;4952578;28;20114;-88
2021/12/15 13:47:04;;;;;;;18.00;13.80;;;8.80;99.90;;;;;;4955861;28;20051;-89
2021/12/15 13:50:13;;;;;;;18.15;13.00;;;8.80;99.90;;;;;;4899783;29;20052;-89
2021/12/15 13:52:44;;;;;;;16.77;13.30;;;8.80;99.90;;;;;;4884516;29;20482;-89
2021/12/15 13:55:30;;;;;;;18.08;13.25;;;8.90;99.90;;;;;;4909720;29;20059;-89
2021/12/15 13:58:02;;;;;;;18.25;13.20;;;8.90;99.90;;;;;;4911490;29;20056;-88
2021/12/15 14:00:42;;;;;;;18.77;15.38;;;8.90;99.90;;;;;;4912184;29;20040;-88
2021/12/15 14:03:28;;;;;;;18.90;14.73;;;8.90;99.90;;;;;;4908371;29;20048;-89
2021/12/15 14:06:18;;;;;;;21.42;15.82;;;8.90;99.90;;;;;;4893156;29;20059;-89
2021/12/15 14:08:53;;;;;;;21.73;15.02;;;8.90;99.90;;;;;;4911070;29;20048;-89
2021/12/15 14:11:34;;;;;;;21.73;14.75;;;8.90;99.90;;;;;;4907794;29;20151;-88
2021/12/15 14:14:20;;;;;;;20.95;15.18;;;8.90;99.90;;;;;;4902126;29;20052;-89
2021/12/15 14:16:52;;;;;;;20.42;15.07;;;8.90;99.90;;;;;;4886193;29;20160;-87
2021/12/15 14:19:44;;;;;;;20.02;14.77;;;8.90;99.90;;;;;;4898794;29;20217;-88
2021/12/15 14:22:11;;;;;;;59.55;36.50;;;9.00;99.90;;;;;;4884329;29;20076;-88
2021/12/15 14:25:03;;;;;;;27.95;21.38;;;9.00;99.90;;;;;;4888853;29;20075;-88
2021/12/15 14:27:32;;;;;;;25.20;17.92;;;9.00;99.90;;;;;;4909574;29;20469;-88
2021/12/15 14:30:08;;;;;;;28.48;19.00;;;9.00;99.90;;;;;;4921219;29;20055;-88
2021/12/15 14:32:38;;;;;;;25.92;19.13;;;9.00;99.90;;;;;;4920187;29;20047;-88
2021/12/15 14:35:20;;;;;;;19.73;14.90;;;9.00;99.90;;;;;;4928050;29;20044;-87
2021/12/15 14:37:47;;;;;;;20.13;14.27;;;9.00;99.90;;;;;;4911329;29;20052;-86
2021/12/15 14:40:22;;;;;;;19.63;14.35;;;9.00;99.90;;;;;;4919113;29;20159;-87
2021/12/15 14:42:50;;;;;;;18.08;13.68;;;9.10;99.90;;;;;;4918411;29;20048;-87
2021/12/15 14:45:17;;;;;;;19.15;13.95;;;9.10;99.90;;;;;;4926660;28;21300;-87
2021/12/15 14:47:44;;;;;;;20.42;13.93;;;9.10;99.90;;;;;;4929089;29;20496;-89
2021/12/15 14:50:18;;;;;;;21.73;14.45;;;9.10;99.90;;;;;;4922069;29;20059;-89
2021/12/15 14:52:58;;;;;;;27.33;16.30;;;9.10;99.90;;;;;;4912916;29;20067;-87
2021/12/15 14:55:33;;;;;;;23.17;13.50;;;9.10;99.90;;;;;;4928488;29;20055;-87
2021/12/15 14:58:17;;;;;;;19.20;13.85;;;9.20;99.90;;;;;;4923904;28;20048;-88
2021/12/15 15:00:49;;;;;;;20.50;13.60;;;9.10;99.90;;;;;;4921152;28;20047;-86
2021/12/15 15:03:21;;;;;;;18.15;14.40;;;9.10;99.90;;;;;;4903239;29;20429;-86
2021/12/15 15:05:51;;;;;;;22.80;14.52;;;9.10;99.90;;;;;;4930411;29;20056;-87
2021/12/15 15:08:43;;;;;;;23.58;14.68;;;9.10;99.90;;;;;;4916486;29;20059;-87
2021/12/15 15:11:49;;;;;;;19.88;14.95;;;9.10;99.90;;;;;;4887584;29;20055;-88
2021/12/15 15:14:43;;;;;;;22.52;15.18;;;9.10;99.90;;;;;;4916003;29;20059;-86
2021/12/15 15:17:48;;;;;;;21.63;15.10;;;9.10;99.90;;;;;;4893318;29;20063;-86
2021/12/15 15:20:23;;;;;;;21.75;15.18;;;9.10;99.90;;;;;;4922070;29;20048;-87
2021/12/15 15:23:00;;;;;;;20.90;15.30;;;9.10;99.90;;;;;;4913446;29;20524;-86
2021/12/15 15:25:35;;;;;;;21.23;15.57;;;9.10;99.90;;;;;;4896407;29;20074;-86
2021/12/15 15:28:09;;;;;;;20.38;15.10;;;9.10;99.90;;;;;;4904596;29;20499;-87
2021/12/15 15:30:38;;;;;;;22.83;15.77;;;9.10;99.90;;;;;;4908693;29;20047;-86
2021/12/15 15:33:14;;;;;;;23.05;15.73;;;9.10;99.90;;;;;;4928251;28;20051;-86
2021/12/15 15:35:47;;;;;;;21.90;15.55;;;9.10;99.90;;;;;;4929884;29;20047;-87
2021/12/15 15:38:28;;;;;;;22.10;15.45;;;9.10;99.90;;;;;;4931800;28;20495;-87
2021/12/15 15:40:58;;;;;;;22.10;15.18;;;9.10;99.90;;;;;;4907014;29;20064;-86
2021/12/15 15:43:38;;;;;;;20.92;14.57;;;9.10;99.90;;;;;;4923135;29;20047;-86
2021/12/15 15:46:11;;;;;;;21.45;14.77;;;9.10;99.90;;;;;;4927525;29;20047;-85
2021/12/15 15:49:23;;;;;;;23.42;18.25;;;9.10;99.90;;;;;;4930593;29;20048;-86
2021/12/15 15:52:17;;;;;;;19.30;14.30;;;9.00;99.90;;;;;;4887819;29;20182;-84
2021/12/15 15:54:44;;;;;;;21.58;14.30;;;9.00;99.90;;;;;;4915483;29;20055;-83
2021/12/15 15:57:11;;;;;;;30.70;20.55;;;9.00;99.90;;;;;;4914572;29;20079;-85
2021/12/15 15:59:40;;;;;;;35.55;24.50;;;9.00;99.90;;;;;;4931602;29;20505;-85
2021/12/15 16:02:07;;;;;;;33.55;22.63;;;9.10;99.90;;;;;;4914287;28;20047;-84
2021/12/15 16:04:38;;;;;;;27.05;19.02;;;9.10;99.90;;;;;;4931843;29;20050;-85
2021/12/15 16:07:06;;;;;;;28.35;20.63;;;9.00;99.90;;;;;;4915430;29;20043;-84
2021/12/15 16:09:42;;;;;;;;;;;9.00;99.90;;;;;;4932669;29;20052;-85
2021/12/15 16:12:12;;;;;;;34.90;22.75;;;9.00;99.90;;;;;;4900196;29;19942;-85
2021/12/15 16:14:53;;;;;;;48.78;33.83;;;8.90;99.90;;;;;;4877131;29;20044;-85
2021/12/15 16:20:22;;;;;;;42.08;26.55;;;8.90;99.90;;;;;;4893080;29;20559;-82
2021/12/15 16:23:02;;;;;;;;;;;8.90;99.90;;;;;;4925714;29;20610;-83
2021/12/15 16:25:31;;;;;;;34.08;23.33;;;8.90;99.90;;;;;;4923705;29;19930;-85
2021/12/15 16:28:09;;;;;;;25.17;18.33;;;8.80;99.90;;;;;;4925779;29;20071;-85
2021/12/15 16:30:41;;;;;;;33.55;24.25;;;8.80;99.90;;;;;;4921440;29;20123;-85
2021/12/15 16:33:14;;;;;;;45.63;32.33;;;8.80;99.90;;;;;;4915662;29;20050;-84
2021/12/15 16:35:42;;;;;;;34.45;24.25;;;8.80;99.90;;;;;;4907918;29;20044;-85
2021/12/15 16:38:35;;;;;;;34.47;22.65;;;8.80;99.90;;;;;;4908885;29;20471;-84
2021/12/15 16:41:15;;;;;;;47.45;30.27;;;8.80;99.90;;;;;;4926014;29;20051;-85
2021/12/15 16:43:48;;;;;;;42.72;30.25;;;8.80;99.90;;;;;;4914669;29;20055;-85
2021/12/15 16:46:35;;;;;;;42.13;28.02;;;8.70;99.90;;;;;;4909713;29;20143;-85
2021/12/15 16:49:13;;;;;;;41.67;29.38;;;8.70;99.90;;;;;;4909020;29;20071;-85
2021/12/15 16:51:59;;;;;;;40.95;26.25;;;8.70;99.90;;;;;;4926335;29;20457;-84
2021/12/15 16:54:28;;;;;;;35.97;22.58;;;8.70;99.90;;;;;;4907714;29;20050;-85
2021/12/15 16:57:07;;;;;;;54.80;34.65;;;8.70;99.90;;;;;;4909898;29;20106;-84
2021/12/15 16:59:42;;;;;;;52.60;31.10;;;8.70;99.90;;;;;;4909892;29;20200;-83
2021/12/15 17:02:18;;;;;;;50.78;31.13;;;8.70;99.90;;;;;;4920901;28;20585;-81
2021/12/15 17:05:14;;;;;;;;;;;8.70;99.90;;;;;;4920590;28;20052;-82
2021/12/15 17:07:45;;;;;;;39.53;25.45;;;8.70;99.90;;;;;;4929151;28;20037;-82
2021/12/15 17:10:23;;;;;;;36.40;21.55;;;8.60;99.90;;;;;;4926425;28;20062;-83
2021/12/15 17:13:11;;;;;;;41.55;26.73;;;8.60;99.90;;;;;;4918980;28;20055;-82
2021/12/15 17:18:21;;;;;;;52.03;32.83;;;8.50;99.90;;;;;;4928782;28;20083;-82
2021/12/15 17:21:11;;;;;;;43.30;25.92;;;8.50;99.90;;;;;;4928545;28;20051;-83
2021/12/15 17:23:48;;;;;;;47.70;30.85;;;8.50;99.90;;;;;;4926861;29;20042;-83
2021/12/15 17:26:28;;;;;;;38.63;24.08;;;8.50;99.90;;;;;;4929587;28;20050;-82
2021/12/15 17:29:01;;;;;;;47.55;29.20;;;8.50;99.90;;;;;;4928510;29;20059;-81
2021/12/15 17:31:34;;;;;;;45.75;27.23;;;8.50;99.90;;;;;;4928048;28;20044;-82
2021/12/15 17:34:08;;;;;;;43.88;25.25;;;8.50;99.90;;;;;;4927004;28;20469;-82
2021/12/15 17:36:46;;;;;;;60.33;33.33;;;8.40;99.90;;;;;;4932879;28;20473;-81
2021/12/15 17:39:21;;;;;;;45.72;27.35;;;8.40;99.90;;;;;;4938139;28;20047;-83
2021/12/15 17:42:00;;;;;;;36.83;23.40;;;8.40;99.90;;;;;;4938548;28;20092;-82
2021/12/15 17:44:48;;;;;;;57.90;38.25;;;8.40;99.90;;;;;;4929932;28;20054;-81
2021/12/15 17:47:27;;;;;;;78.82;47.60;;;8.40;99.90;;;;;;4934238;28;20048;-82
2021/12/15 17:50:17;;;;;;;52.13;31.00;;;8.40;99.90;;;;;;4933187;29;20060;-80
2021/12/15 17:52:48;;;;;;;66.85;41.78;;;8.30;99.90;;;;;;4930723;28;20051;-82
2021/12/15 17:55:33;;;;;;;81.07;51.35;;;8.30;99.90;;;;;;4936884;28;20044;-82
2021/12/15 17:58:10;;;;;;;52.15;33.42;;;8.30;99.90;;;;;;4931753;29;20059;-82
2021/12/15 18:00:48;;;;;;;95.03;61.30;;;8.30;99.90;;;;;;4931621;29;20095;-82
2021/12/15 18:03:29;;;;;;;88.30;51.58;;;8.30;99.90;;;;;;4929965;29;20051;-82
2021/12/15 18:05:59;;;;;;;47.28;29.35;;;8.20;99.90;;;;;;4930028;29;20051;-83
2021/12/15 18:08:39;;;;;;;;;;;;;;;;;;;;;
2021/12/15 18:11:10;;;;;;;38.70;24.85;;;8.20;99.90;;;;;;4914090;29;20051;-83
2021/12/15 18:13:48;;;;;;;90.03;54.03;;;8.20;99.90;;;;;;4899730;29;20055;-81
2021/12/15 18:16:16;;;;;;;52.97;32.42;;;8.10;99.90;;;;;;4927280;29;20048;-83
2021/12/15 18:18:45;;;;;;;59.47;36.95;;;8.10;99.90;;;;;;4928084;29;20055;-82
2021/12/15 18:21:24;;;;;;;92.38;51.80;;;8.10;99.90;;;;;;4922766;29;20472;-82
2021/12/15 18:23:54;;;;;;;40.38;26.00;;;8.10;99.90;;;;;;4925930;29;20051;-81
2021/12/15 18:26:30;;;;;;;42.80;27.52;;;8.10;99.90;;;;;;4928508;29;20059;-82
2021/12/15 18:29:02;;;;;;;46.22;30.60;;;8.10;99.90;;;;;;4914620;29;20047;-82
2021/12/15 18:31:32;;;;;;;37.45;23.67;;;8.10;99.90;;;;;;4927761;29;20068;-82
2021/12/15 18:34:03;;;;;;;45.85;28.00;;;8.00;99.90;;;;;;4928615;28;20051;-80
2021/12/15 18:36:54;;;;;;;40.55;23.45;;;8.00;99.90;;;;;;4916090;29;20074;-83
2021/12/15 18:39:35;;;;;;;33.90;22.02;;;8.00;99.90;;;;;;4929959;28;20050;-82
2021/12/15 18:42:04;;;;;;;36.88;22.58;;;8.00;99.90;;;;;;4914143;29;20044;-82
2021/12/15 18:44:32;;;;;;;38.92;23.00;;;8.00;99.90;;;;;;4930639;29;20052;-82
2021/12/15 18:47:00;;;;;;;37.35;22.92;;;7.90;99.90;;;;;;4913941;29;20445;-83
2021/12/15 18:49:29;;;;;;;40.33;23.52;;;7.80;99.90;;;;;;4914521;29;20047;-83
2021/12/15 18:51:59;;;;;;;40.90;23.63;;;7.80;99.90;;;;;;4913017;29;20059;-84
2021/12/15 18:54:28;;;;;;;38.15;22.30;;;7.80;99.90;;;;;;4914016;29;20051;-85
2021/12/15 18:56:57;;;;;;;;;;;7.80;99.90;;;;;;4932072;29;20043;-81
2021/12/15 18:59:31;;;;;;;33.78;18.95;;;7.80;99.90;;;;;;4926176;29;19930;-84
2021/12/15 19:02:22;;;;;;;49.33;27.02;;;7.70;99.90;;;;;;4908121;29;20051;-85
2021/12/15 19:04:51;;;;;;;41.40;23.58;;;7.80;99.90;;;;;;4926193;28;20504;-84
2021/12/15 19:07:19;;;;;;;40.78;23.50;;;7.70;99.90;;;;;;4928753;29;20048;-84
2021/12/15 19:09:47;;;;;;;36.93;22.87;;;7.70;99.90;;;;;;4918027;29;20051;-84
2021/12/15 19:12:18;;;;;;;42.50;24.35;;;7.70;99.90;;;;;;4929553;29;20874;-84
2021/12/15 19:15:11;;;;;;;64.45;32.42;;;7.70;99.90;;;;;;4911838;29;20106;-84
2021/12/15 19:18:04;;;;;;;59.38;28.05;;;7.70;99.90;;;;;;4913155;29;20039;-85
2021/12/15 19:20:54;;;;;;;46.70;23.45;;;7.70;99.90;;;;;;4911946;29;20043;-85
2021/12/15 19:23:23;;;;;;;38.92;21.88;;;7.70;99.90;;;;;;4921324;28;20071;-84
2021/12/15 19:25:50;;;;;;;43.15;22.67;;;7.70;99.90;;;;;;4928403;28;20598;-85
2021/12/15 19:28:18;;;;;;;45.55;22.80;;;7.70;99.90;;;;;;4930262;29;20095;-84
2021/12/15 19:31:09;;;;;;;45.35;21.52;;;7.60;99.90;;;;;;4928164;29;20046;-84
2021/12/15 19:34:01;;;;;;;42.90;23.35;;;7.60;99.90;;;;;;4928680;29;20038;-85
2021/12/15 19:36:31;;;;;;;46.00;24.17;;;7.60;99.90;;;;;;4929675;29;20052;-85
2021/12/15 19:39:00;;;;;;;52.80;25.73;;;7.60;99.90;;;;;;4913175;29;20461;-85
2021/12/15 19:41:29;;;;;;;45.08;24.23;;;7.60;99.90;;;;;;4913732;29;20047;-84
2021/12/15 19:43:57;;;;;;;;;;;7.60;99.90;;;;;;4928996;29;20048;-85
2021/12/15 19:46:24;;;;;;;67.23;25.33;;;7.60;99.90;;;;;;4912837;29;21127;-84
2021/12/15 19:48:51;;;;;;;50.83;22.90;;;7.50;99.90;;;;;;4928664;29;20398;-84
2021/12/15 19:51:22;;;;;;;41.90;20.80;;;7.40;99.90;;;;;;4913526;29;20071;-85
2021/12/15 19:53:50;;;;;;;42.80;23.20;;;7.40;99.90;;;;;;4930455;29;20517;-84
2021/12/15 19:56:19;;;;;;;40.47;21.40;;;7.40;99.90;;;;;;4930407;29;20079;-84
2021/12/15 19:58:46;;;;;;;;;;;7.40;99.90;;;;;;4930179;29;20516;-84
2021/12/15 20:01:18;;;;;;;41.33;20.73;;;7.40;99.90;;;;;;4927541;28;19934;-84
2021/12/15 20:03:46;;;;;;;33.88;20.08;;;7.40;99.90;;;;;;4913969;29;20079;-85
2021/12/15 20:06:14;;;;;;;40.00;21.05;;;7.40;99.90;;;;;;4913087;29;20048;-84
2021/12/15 20:08:41;;;;;;;50.45;21.23;;;7.40;99.90;;;;;;4937124;28;20051;-85
2021/12/15 20:11:17;;;;;;;56.53;21.67;;;7.40;99.90;;;;;;4929195;29;20058;-83
2021/12/15 20:13:52;;;;;;;44.28;21.95;;;7.40;99.90;;;;;;4927933;29;20048;-85
2021/12/15 20:16:24;;;;;;;85.88;22.35;;;7.30;99.90;;;;;;4927790;29;20445;-84
2021/12/15 20:18:52;;;;;;;57.20;22.00;;;7.20;99.90;;;;;;4928326;29;20523;-84
2021/12/15 20:21:20;;;;;;;68.05;21.08;;;7.20;99.90;;;;;;4928786;29;20412;-84
2021/12/15 20:23:47;;;;;;;73.30;20.15;;;7.20;99.90;;;;;;4930716;29;20048;-85
2021/12/15 20:26:15;;;;;;;63.17;22.73;;;7.20;99.90;;;;;;4931024;29;20110;-85
2021/12/15 20:28:42;;;;;;;66.45;27.40;;;7.20;99.90;;;;;;4928716;29;20067;-85
2021/12/15 20:31:16;;;;;;;77.10;25.65;;;7.20;99.90;;;;;;4927633;29;20056;-84
2021/12/15 20:33:44;;;;;;;95.25;22.98;;;7.20;99.90;;;;;;4931929;29;20146;-84
2021/12/15 20:36:11;;;;;;;93.93;23.67;;;7.20;99.90;;;;;;4933245;29;20047;-86
2021/12/15 20:38:38;;;;;;;101.40;23.55;;;7.20;99.90;;;;;;4934955;29;20056;-83
2021/12/15 20:41:08;;;;;;;84.47;19.50;;;7.10;99.90;;;;;;4932511;29;20110;-83
2021/12/15 20:43:36;;;;;;;77.82;19.80;;;7.10;99.90;;;;;;4917827;29;20048;-83
2021/12/15 20:46:05;;;;;;;66.50;19.77;;;7.10;99.90;;;;;;4932071;29;20051;-82
2021/12/15 20:48:32;;;;;;;80.22;23.50;;;7.10;99.90;;;;;;4917291;29;20103;-83
2021/12/15 20:51:03;;;;;;;85.50;25.13;;;7.10;99.90;;;;;;4915847;29;20044;-84
2021/12/15 20:53:31;;;;;;;173.82;23.42;;;7.10;99.90;;;;;;4917047;29;20047;-85
2021/12/15 20:55:58;;;;;;;79.40;20.80;;;7.00;99.90;;;;;;4931887;29;20118;-84
2021/12/15 20:58:25;;;;;;;70.22;20.73;;;7.00;99.90;;;;;;4933357;29;20111;-84
2021/12/15 21:00:53;;;;;;;67.20;22.58;;;7.00;99.90;;;;;;4933471;29;20520;-84
2021/12/15 21:03:22;;;;;;;124.68;27.98;;;7.00;99.90;;;;;;4931060;29;20563;-84
2021/12/15 21:05:53;;;;;;;116.20;23.25;;;7.00;99.90;;;;;;4934005;29;20083;-85
2021/12/15 21:08:23;;;;;;;184.65;25.25;;;7.00;99.90;;;;;;4939112;28;20043;-84